CBQ weather

Margaret Ekpo International Airport
Calabar, Cross River, Nigeria

Public forecast

Using degrees Celsius for public forecast. Weather courtesy of forecast.io.

Current aviation weather report (METAR) for Margaret Ekpo International Airport

Report is more than 6 hours old.

Retrieved 2019/10/09 07:00 UTC (10 days ago):

DNCA 090700Z 00000KT 9999 BKN009 23/22 Q1012

Aviation forecast (TAF) for Margaret Ekpo International Airport

Retrieved 2019/10/19 18:48 UTC (0 seconds ago):

TAF TAF DNCA 191700Z 1918/2024 20005KT 8000 BKN008 FEW020CB TEMPO 1918/1923 5000-TSRA BECMG 2000/2002 BKN008